This is the latest recevied weather packets stored in our database for station/object KE7KUS-14. If no packets are shown the sender has not sent any weather packets the latest 10 day(s).
| Time | Temp. | Humidity | Pressure | Rain* | Wind** | Luminosity | Snow |
|---|---|---|---|---|---|---|---|
| 1777738879 | 5° C | 92% | 1031.8 hPa | 0 mm | - | 36 W/m² | - |
| 1777731083 | 6.11° C | 88% | 1030.7 hPa | 0 mm | - | 173 W/m² | - |
| 1777728094 | 5.56° C | 88% | 1030.2 hPa | 0 mm | - | 28 W/m² | - |
| 1777727510 | 5.56° C | 89% | 1030.1 hPa | 0 mm | - | 22 W/m² | - |
| 1777723937 | 5.56° C | 88% | 1029.8 hPa | 0 mm | - | 0 W/m² | - |
| 1777722724 | 5.56° C | 86% | 1029.6 hPa | 0 mm | - | 0 W/m² | - |
| 1777720886 | 5.56° C | 82% | 1029.7 hPa | 0 mm | - | 0 W/m² | - |
| 1777717899 | 6.11° C | 82% | 1029.3 hPa | 0 mm | - | 0 W/m² | - |
| 1777717314 | 6.11° C | 82% | 1029.2 hPa | 0 mm | - | 0 W/m² | - |
| 1777714911 | 6.11° C | 80% | 1029 hPa | 0 mm | - | 0 W/m² | - |
| 1777714326 | 5.56° C | 82% | 1028.8 hPa | 0 mm | - | 0 W/m² | - |
| 1777710690 | 6.11° C | 82% | 1029.3 hPa | 0 mm | - | 0 W/m² | - |
| 1777708368 | 6.11° C | 78% | 1028.8 hPa | 0 mm | - | 0 W/m² | - |
| 1777702953 | 6.11° C | 75% | 1028.8 hPa | 0 mm | - | 0 W/m² | - |
| 1777699901 | 6.11° C | 78% | 1029.1 hPa | 0 mm | - | 0 W/m² | - |
| 1777699316 | 6.67° C | 77% | 1028.9 hPa | 0 mm | - | 0 W/m² | - |
| 1777698752 | 6.11° C | 77% | 1028.9 hPa | 0 mm | - | 0 W/m² | - |
| 1777696349 | 6.67° C | 77% | 1028.8 hPa | 0 mm | - | 0 W/m² | - |
| 1777695159 | 6.67° C | 74% | 1028.4 hPa | 0 mm | - | 0 W/m² | - |
| 1777692758 | 6.11° C | 75% | 1028.1 hPa | 0 mm | - | 0 W/m² | - |
| 1777692108 | 6.11° C | 75% | 1027.9 hPa | 0 mm | - | 0 W/m² | - |
| 1777687952 | 6.11° C | 75% | 1026.7 hPa | 0 mm | - | 0 W/m² | - |
| 1777681325 | 8.89° C | 68% | 1025.5 hPa | 0 mm | - | 136 W/m² | - |
| 1777678914 | 9.44° C | 65% | 1024.9 hPa | 0 mm | - | 231 W/m² | - |
| 1777678350 | 9.44° C | 66% | 1024.9 hPa | 0 mm | - | 257 W/m² | - |
* Rain latest hour (hover to see other rain measurements)
** Current wind speed in m/s (hover to see current wind gust speed)